Waconia, Minnesota
Current Conditions -  °F | °C
As of 1:14 PM on Saturday 25 Oct 2014 (Local Time) from KGYL Reporting Station
Clear Clear  
Wind Chill: 63°   Ceiling: Unl
Heat Index: 63°   Visibility: 10mi
Dew Point: 32°   Wind: 20mph
Humidity: 32%   Direction: 280°W
Pressure: 30.08"   Gusts: 26mph
Location:  44.85°N, 93.79°W
Report Text: KGYL 251814Z AUTO 28017G23KT 10SM CLR 17/00 A3008 RMK AO2 T01710000
Loading
Personal Weather Stations






























Interactive Weather Map
Tropical Storm Tracking
New forecast layout! Learn more

10-Day Weather Forecast

Advertisements
Track Severe Weather on mobile